sensor_id;sensor_type;location;lat;lon;timestamp;pressure;altitude;pressure_sealevel;temperature;humidity
23996;BME280;12207;50.076;8.848;2024-01-06T00:00:01;98807.34;;;5.21;95.02
23996;BME280;12207;50.076;8.848;2024-01-06T00:02:28;98800.81;;;5.23;94.61
23996;BME280;12207;50.076;8.848;2024-01-06T00:04:54;98808.00;;;5.16;94.59
23996;BME280;12207;50.076;8.848;2024-01-06T00:07:20;98807.53;;;5.26;94.10
23996;BME280;12207;50.076;8.848;2024-01-06T00:09:46;98805.31;;;5.23;94.46
23996;BME280;12207;50.076;8.848;2024-01-06T00:12:12;98806.94;;;5.24;94.16
23996;BME280;12207;50.076;8.848;2024-01-06T00:14:38;98811.06;;;5.20;94.55
23996;BME280;12207;50.076;8.848;2024-01-06T00:17:08;98807.13;;;5.22;94.39
23996;BME280;12207;50.076;8.848;2024-01-06T00:19:34;98803.25;;;5.25;94.16
23996;BME280;12207;50.076;8.848;2024-01-06T00:22:00;98806.16;;;5.17;94.09
23996;BME280;12207;50.076;8.848;2024-01-06T00:24:26;98816.38;;;5.20;94.09
23996;BME280;12207;50.076;8.848;2024-01-06T00:26:53;98806.13;;;5.23;93.96
23996;BME280;12207;50.076;8.848;2024-01-06T00:29:19;98804.88;;;5.26;93.81
23996;BME280;12207;50.076;8.848;2024-01-06T00:31:45;98803.84;;;5.27;93.39
23996;BME280;12207;50.076;8.848;2024-01-06T00:34:14;98807.53;;;5.26;93.87
23996;BME280;12207;50.076;8.848;2024-01-06T00:36:43;98796.69;;;5.27;93.67
23996;BME280;12207;50.076;8.848;2024-01-06T00:39:09;98809.38;;;5.25;93.94
23996;BME280;12207;50.076;8.848;2024-01-06T00:41:35;98807.53;;;5.26;93.88
23996;BME280;12207;50.076;8.848;2024-01-06T00:44:01;98814.88;;;5.30;93.71
23996;BME280;12207;50.076;8.848;2024-01-06T00:46:27;98819.19;;;5.25;93.91
23996;BME280;12207;50.076;8.848;2024-01-06T00:48:53;98823.69;;;5.24;93.66
23996;BME280;12207;50.076;8.848;2024-01-06T00:51:20;98820.81;;;5.26;93.81
23996;BME280;12207;50.076;8.848;2024-01-06T00:53:46;98819.59;;;5.22;93.54
23996;BME280;12207;50.076;8.848;2024-01-06T00:56:13;98821.84;;;5.25;93.83
23996;BME280;12207;50.076;8.848;2024-01-06T00:58:39;98813.72;;;5.20;93.84
23996;BME280;12207;50.076;8.848;2024-01-06T01:01:05;98818.16;;;5.26;93.70
23996;BME280;12207;50.076;8.848;2024-01-06T01:03:31;98815.91;;;5.23;93.97
23996;BME280;12207;50.076;8.848;2024-01-06T01:05:57;98817.56;;;5.24;93.89
23996;BME280;12207;50.076;8.848;2024-01-06T01:08:23;98830.66;;;5.19;93.78
23996;BME280;12207;50.076;8.848;2024-01-06T01:10:52;98832.94;;;5.08;94.10
23996;BME280;12207;50.076;8.848;2024-01-06T01:13:18;98826.22;;;5.06;94.74
23996;BME280;12207;50.076;8.848;2024-01-06T01:15:44;98827.66;;;5.02;95.21
23996;BME280;12207;50.076;8.848;2024-01-06T01:18:11;98831.13;;;5.02;95.08
23996;BME280;12207;50.076;8.848;2024-01-06T01:20:37;98825.41;;;4.99;95.02
23996;BME280;12207;50.076;8.848;2024-01-06T01:23:03;98826.88;;;4.95;95.48
23996;BME280;12207;50.076;8.848;2024-01-06T01:25:29;98826.25;;;4.93;95.43
23996;BME280;12207;50.076;8.848;2024-01-06T01:27:55;98826.06;;;4.88;95.62
23996;BME280;12207;50.076;8.848;2024-01-06T01:30:21;98829.13;;;4.91;95.51
23996;BME280;12207;50.076;8.848;2024-01-06T01:32:47;98829.53;;;4.88;95.45
23996;BME280;12207;50.076;8.848;2024-01-06T01:35:13;98841.78;;;4.89;95.93
23996;BME280;12207;50.076;8.848;2024-01-06T01:37:40;98841.78;;;4.89;95.93
23996;BME280;12207;50.076;8.848;2024-01-06T01:40:07;98845.88;;;4.92;96.28
23996;BME280;12207;50.076;8.848;2024-01-06T01:42:33;98846.25;;;4.95;96.35
23996;BME280;12207;50.076;8.848;2024-01-06T01:45:03;98849.91;;;5.01;95.60
23996;BME280;12207;50.076;8.848;2024-01-06T01:47:30;98856.03;;;5.01;96.14
23996;BME280;12207;50.076;8.848;2024-01-06T01:49:56;98854.59;;;5.05;96.15
23996;BME280;12207;50.076;8.848;2024-01-06T01:52:22;98859.47;;;5.15;95.74
23996;BME280;12207;50.076;8.848;2024-01-06T01:54:49;98860.91;;;5.18;96.16
23996;BME280;12207;50.076;8.848;2024-01-06T01:57:16;98870.66;;;5.24;95.48
23996;BME280;12207;50.076;8.848;2024-01-06T01:59:45;98868.19;;;5.29;95.57
23996;BME280;12207;50.076;8.848;2024-01-06T02:02:12;98865.53;;;5.29;95.33
23996;BME280;12207;50.076;8.848;2024-01-06T02:04:39;98873.09;;;5.32;94.96
23996;BME280;12207;50.076;8.848;2024-01-06T02:07:05;98882.91;;;5.31;94.77
23996;BME280;12207;50.076;8.848;2024-01-06T02:09:31;98876.75;;;5.31;95.12
23996;BME280;12207;50.076;8.848;2024-01-06T02:11:57;98874.34;;;5.23;95.65
23996;BME280;12207;50.076;8.848;2024-01-06T02:14:26;98864.75;;;5.22;94.97
23996;BME280;12207;50.076;8.848;2024-01-06T02:16:52;98868.66;;;5.19;95.26
23996;BME280;12207;50.076;8.848;2024-01-06T02:19:19;98879.06;;;5.14;95.97
23996;BME280;12207;50.076;8.848;2024-01-06T02:21:49;98877.44;;;5.13;96.28
23996;BME280;12207;50.076;8.848;2024-01-06T02:24:19;98876.03;;;5.10;95.83
23996;BME280;12207;50.076;8.848;2024-01-06T02:26:47;98880.31;;;5.11;96.59
23996;BME280;12207;50.076;8.848;2024-01-06T02:29:14;98880.31;;;5.11;96.99
23996;BME280;12207;50.076;8.848;2024-01-06T02:31:40;98882.16;;;5.11;97.03
23996;BME280;12207;50.076;8.848;2024-01-06T02:34:06;98876.03;;;5.10;97.26
23996;BME280;12207;50.076;8.848;2024-01-06T02:36:32;98877.66;;;5.11;97.82
23996;BME280;12207;50.076;8.848;2024-01-06T02:38:58;98879.91;;;5.14;97.87
23996;BME280;12207;50.076;8.848;2024-01-06T02:41:27;98875.41;;;5.15;98.32
23996;BME280;12207;50.076;8.848;2024-01-06T02:43:55;98882.13;;;5.18;98.24
23996;BME280;12207;50.076;8.848;2024-01-06T02:46:22;98886.19;;;5.20;97.95
23996;BME280;12207;50.076;8.848;2024-01-06T02:48:48;98889.66;;;5.21;97.11
23996;BME280;12207;50.076;8.848;2024-01-06T02:51:14;98885.41;;;5.20;96.88
23996;BME280;12207;50.076;8.848;2024-01-06T02:53:40;98888.63;;;5.22;97.40
23996;BME280;12207;50.076;8.848;2024-01-06T02:56:10;98894.75;;;5.29;97.56
23996;BME280;12207;50.076;8.848;2024-01-06T02:58:37;98896.16;;;5.38;96.61
23996;BME280;12207;50.076;8.848;2024-01-06T03:01:03;98902.44;;;5.43;96.28
23996;BME280;12207;50.076;8.848;2024-01-06T03:03:29;98898.72;;;5.58;95.15
23996;BME280;12207;50.076;8.848;2024-01-06T03:05:55;98901.19;;;5.59;95.70
23996;BME280;12207;50.076;8.848;2024-01-06T03:08:21;98907.31;;;5.60;95.72
23996;BME280;12207;50.076;8.848;2024-01-06T03:10:49;98901.19;;;5.59;96.17
23996;BME280;12207;50.076;8.848;2024-01-06T03:13:15;98905.25;;;5.62;96.91
23996;BME280;12207;50.076;8.848;2024-01-06T03:15:41;98900.75;;;5.62;96.54
23996;BME280;12207;50.076;8.848;2024-01-06T03:18:07;98909.16;;;5.59;97.29
23996;BME280;12207;50.076;8.848;2024-01-06T03:20:34;98906.91;;;5.56;97.50
23996;BME280;12207;50.076;8.848;2024-01-06T03:23:01;98909.97;;;5.53;98.29
23996;BME280;12207;50.076;8.848;2024-01-06T03:25:27;98911.63;;;5.54;98.19
23996;BME280;12207;50.076;8.848;2024-01-06T03:27:53;98915.50;;;5.58;97.23
23996;BME280;12207;50.076;8.848;2024-01-06T03:30:19;98913.03;;;5.63;96.25
23996;BME280;12207;50.076;8.848;2024-01-06T03:32:50;98917.91;;;5.66;96.88
23996;BME280;12207;50.076;8.848;2024-01-06T03:35:16;98914.81;;;5.69;96.17
23996;BME280;12207;50.076;8.848;2024-01-06T03:37:44;98908.03;;;5.73;94.79
23996;BME280;12207;50.076;8.848;2024-01-06T03:40:10;98912.72;;;5.85;93.13
23996;BME280;12207;50.076;8.848;2024-01-06T03:42:37;98914.75;;;5.82;92.79
23996;BME280;12207;50.076;8.848;2024-01-06T03:45:03;98911.28;;;5.89;93.09
23996;BME280;12207;50.076;8.848;2024-01-06T03:47:29;98915.59;;;5.90;93.18
23996;BME280;12207;50.076;8.848;2024-01-06T03:49:55;98912.09;;;5.89;93.19
23996;BME280;12207;50.076;8.848;2024-01-06T03:52:21;98920.44;;;5.93;93.08
23996;BME280;12207;50.076;8.848;2024-01-06T03:54:47;98919.41;;;6.00;91.29
23996;BME280;12207;50.076;8.848;2024-01-06T03:57:13;98924.06;;;6.05;91.11
23996;BME280;12207;50.076;8.848;2024-01-06T03:59:40;98927.38;;;6.00;91.61
23996;BME280;12207;50.076;8.848;2024-01-06T04:02:06;98934.94;;;5.97;91.70
23996;BME280;12207;50.076;8.848;2024-01-06T04:04:32;98933.91;;;5.98;91.94
23996;BME280;12207;50.076;8.848;2024-01-06T04:07:01;98929.63;;;5.97;91.80
23996;BME280;12207;50.076;8.848;2024-01-06T04:09:27;98942.09;;;6.03;92.02
23996;BME280;12207;50.076;8.848;2024-01-06T04:11:53;98941.47;;;6.01;91.64
23996;BME280;12207;50.076;8.848;2024-01-06T04:14:19;98937.22;;;5.93;92.14
23996;BME280;12207;50.076;8.848;2024-01-06T04:16:46;98941.09;;;5.97;92.55
23996;BME280;12207;50.076;8.848;2024-01-06T04:19:12;98937.00;;;5.95;92.70
23996;BME280;12207;50.076;8.848;2024-01-06T04:21:38;98936.56;;;6.04;91.85
23996;BME280;12207;50.076;8.848;2024-01-06T04:24:05;98938.22;;;5.99;91.85
23996;BME280;12207;50.076;8.848;2024-01-06T04:26:31;98947.59;;;6.01;91.77
23996;BME280;12207;50.076;8.848;2024-01-06T04:28:57;98944.34;;;5.99;91.82
23996;BME280;12207;50.076;8.848;2024-01-06T04:31:23;98946.78;;;6.01;92.21
23996;BME280;12207;50.076;8.848;2024-01-06T04:33:52;98950.91;;;5.97;92.41
23996;BME280;12207;50.076;8.848;2024-01-06T04:36:18;98950.28;;;5.95;92.33
23996;BME280;12207;50.076;8.848;2024-01-06T04:38:44;98946.81;;;5.94;92.19
23996;BME280;12207;50.076;8.848;2024-01-06T04:41:10;98947.44;;;5.96;93.30
23996;BME280;12207;50.076;8.848;2024-01-06T04:43:36;98944.16;;;5.94;92.96
23996;BME280;12207;50.076;8.848;2024-01-06T04:46:02;98950.72;;;5.92;93.80
23996;BME280;12207;50.076;8.848;2024-01-06T04:48:29;98951.50;;;5.99;93.10
23996;BME280;12207;50.076;8.848;2024-01-06T04:50:55;98948.25;;;5.97;92.81
23996;BME280;12207;50.076;8.848;2024-01-06T04:53:21;98935.38;;;5.94;93.38
23996;BME280;12207;50.076;8.848;2024-01-06T04:55:47;98939.06;;;5.93;94.26
23996;BME280;12207;50.076;8.848;2024-01-06T04:58:16;98942.97;;;5.90;94.25
23996;BME280;12207;50.076;8.848;2024-01-06T05:00:43;98939.50;;;5.90;93.89
23996;BME280;12207;50.076;8.848;2024-01-06T05:03:09;98940.72;;;5.87;93.79
23996;BME280;12207;50.076;8.848;2024-01-06T05:05:35;98944.38;;;5.93;92.55
23996;BME280;12207;50.076;8.848;2024-01-06T05:08:01;98942.75;;;5.92;93.03
23996;BME280;12207;50.076;8.848;2024-01-06T05:10:27;98941.94;;;5.85;93.26
23996;BME280;12207;50.076;8.848;2024-01-06T05:12:53;98939.44;;;5.96;92.11
23996;BME280;12207;50.076;8.848;2024-01-06T05:15:20;98940.91;;;5.92;92.49
23996;BME280;12207;50.076;8.848;2024-01-06T05:17:46;98946.66;;;5.89;92.91
23996;BME280;12207;50.076;8.848;2024-01-06T05:20:12;98935.41;;;5.87;93.34
23996;BME280;12207;50.076;8.848;2024-01-06T05:22:38;98946.22;;;5.92;92.55
23996;BME280;12207;50.076;8.848;2024-01-06T05:25:04;98941.94;;;5.91;92.82
23996;BME280;12207;50.076;8.848;2024-01-06T05:27:30;98940.91;;;5.92;93.00
23996;BME280;12207;50.076;8.848;2024-01-06T05:29:56;98932.47;;;6.02;92.54
23996;BME280;12207;50.076;8.848;2024-01-06T05:32:22;98936.56;;;6.04;91.98
23996;BME280;12207;50.076;8.848;2024-01-06T05:34:49;98938.22;;;5.99;91.89
23996;BME280;12207;50.076;8.848;2024-01-06T05:37:15;98948.44;;;5.95;92.50
23996;BME280;12207;50.076;8.848;2024-01-06T05:39:41;98942.09;;;5.96;92.22
23996;BME280;12207;50.076;8.848;2024-01-06T05:42:10;98945.41;;;5.92;92.55
23996;BME280;12207;50.076;8.848;2024-01-06T05:44:39;98944.38;;;5.93;92.32
23996;BME280;12207;50.076;8.848;2024-01-06T05:47:05;98951.75;;;5.91;93.02
23996;BME280;12207;50.076;8.848;2024-01-06T05:49:31;98956.47;;;5.89;93.25
23996;BME280;12207;50.076;8.848;2024-01-06T05:51:57;98956.66;;;5.87;93.00
23996;BME280;12207;50.076;8.848;2024-01-06T05:54:23;98970.59;;;5.89;92.51
23996;BME280;12207;50.076;8.848;2024-01-06T05:56:49;98968.28;;;5.93;93.00
23996;BME280;12207;50.076;8.848;2024-01-06T05:59:16;98975.91;;;5.89;92.62
23996;BME280;12207;50.076;8.848;2024-01-06T06:01:42;98981.59;;;5.93;92.50
23996;BME280;12207;50.076;8.848;2024-01-06T06:04:10;98981.16;;;6.02;91.28
23996;BME280;12207;50.076;8.848;2024-01-06T06:06:36;98982.81;;;5.97;92.30
23996;BME280;12207;50.076;8.848;2024-01-06T06:09:03;98988.75;;;5.92;92.56
23996;BME280;12207;50.076;8.848;2024-01-06T06:11:33;98986.69;;;5.94;92.68
23996;BME280;12207;50.076;8.848;2024-01-06T06:13:59;98994.28;;;5.91;92.78
23996;BME280;12207;50.076;8.848;2024-01-06T06:16:28;99002.25;;;5.91;93.66
23996;BME280;12207;50.076;8.848;2024-01-06T06:18:54;99003.66;;;5.93;93.53
23996;BME280;12207;50.076;8.848;2024-01-06T06:21:21;99006.13;;;5.95;93.83
23996;BME280;12207;50.076;8.848;2024-01-06T06:23:47;98998.56;;;5.92;93.43
23996;BME280;12207;50.076;8.848;2024-01-06T06:26:13;99004.06;;;5.97;92.92
23996;BME280;12207;50.076;8.848;2024-01-06T06:28:39;99003.25;;;5.96;92.90
23996;BME280;12207;50.076;8.848;2024-01-06T06:31:06;99012.44;;;6.00;92.79
23996;BME280;12207;50.076;8.848;2024-01-06T06:33:32;99011.59;;;6.06;92.83
23996;BME280;12207;50.076;8.848;2024-01-06T06:36:02;99019.19;;;6.03;92.30
23996;BME280;12207;50.076;8.848;2024-01-06T06:38:28;99018.97;;;6.04;92.58
23996;BME280;12207;50.076;8.848;2024-01-06T06:40:55;99022.88;;;6.02;93.45
23996;BME280;12207;50.076;8.848;2024-01-06T06:43:22;99026.13;;;6.04;93.03
23996;BME280;12207;50.076;8.848;2024-01-06T06:45:48;99025.53;;;6.02;93.66
23996;BME280;12207;50.076;8.848;2024-01-06T06:48:14;99026.56;;;6.01;93.92
23996;BME280;12207;50.076;8.848;2024-01-06T06:50:40;99030.25;;;6.00;93.97
23996;BME280;12207;50.076;8.848;2024-01-06T06:53:10;99032.88;;;6.06;93.35
23996;BME280;12207;50.076;8.848;2024-01-06T06:55:36;99042.09;;;6.04;93.12
23996;BME280;12207;50.076;8.848;2024-01-06T06:58:03;99044.16;;;6.02;93.88
23996;BME280;12207;50.076;8.848;2024-01-06T07:00:30;99041.69;;;6.07;93.24
23996;BME280;12207;50.076;8.848;2024-01-06T07:02:56;99051.09;;;6.03;93.00
23996;BME280;12207;50.076;8.848;2024-01-06T07:05:22;99054.78;;;6.02;93.68
23996;BME280;12207;50.076;8.848;2024-01-06T07:07:48;99062.75;;;6.02;94.09
23996;BME280;12207;50.076;8.848;2024-01-06T07:10:20;99070.31;;;6.05;93.81
23996;BME280;12207;50.076;8.848;2024-01-06T07:12:47;99071.53;;;6.02;93.94
23996;BME280;12207;50.076;8.848;2024-01-06T07:15:13;99068.69;;;6.04;94.48
23996;BME280;12207;50.076;8.848;2024-01-06T07:17:39;99066.03;;;6.04;94.95
23996;BME280;12207;50.076;8.848;2024-01-06T07:20:08;99068.88;;;6.02;94.31
23996;BME280;12207;50.076;8.848;2024-01-06T07:22:35;99079.09;;;6.05;94.15
23996;BME280;12207;50.076;8.848;2024-01-06T07:25:02;99081.53;;;6.13;93.54
23996;BME280;12207;50.076;8.848;2024-01-06T07:27:28;99081.91;;;6.17;92.42
23996;BME280;12207;50.076;8.848;2024-01-06T07:29:54;99089.06;;;6.16;92.80
23996;BME280;12207;50.076;8.848;2024-01-06T07:32:24;99086.41;;;6.23;92.99
23996;BME280;12207;50.076;8.848;2024-01-06T07:34:51;99095.63;;;6.21;92.91
23996;BME280;12207;50.076;8.848;2024-01-06T07:37:17;99100.94;;;6.21;93.27
23996;BME280;12207;50.076;8.848;2024-01-06T07:39:43;99105.66;;;6.19;92.83
23996;BME280;12207;50.076;8.848;2024-01-06T07:42:09;99114.03;;;6.22;92.93
23996;BME280;12207;50.076;8.848;2024-01-06T07:44:35;99107.88;;;6.22;93.18
23996;BME280;12207;50.076;8.848;2024-01-06T07:47:01;99114.44;;;6.26;93.17
23996;BME280;12207;50.076;8.848;2024-01-06T07:49:31;99110.94;;;6.25;93.08
23996;BME280;12207;50.076;8.848;2024-01-06T07:51:57;99110.50;;;6.35;91.99
23996;BME280;12207;50.076;8.848;2024-01-06T07:54:23;99116.81;;;6.40;92.10
23996;BME280;12207;50.076;8.848;2024-01-06T07:56:49;99117.63;;;6.41;92.31
23996;BME280;12207;50.076;8.848;2024-01-06T07:59:16;99120.91;;;6.43;92.80
23996;BME280;12207;50.076;8.848;2024-01-06T08:01:42;99120.94;;;6.36;92.35
23996;BME280;12207;50.076;8.848;2024-01-06T08:04:10;99129.28;;;6.40;92.48
23996;BME280;12207;50.076;8.848;2024-01-06T08:06:37;99125.81;;;6.39;92.54
23996;BME280;12207;50.076;8.848;2024-01-06T08:09:03;99125.81;;;6.46;92.11
23996;BME280;12207;50.076;8.848;2024-01-06T08:11:29;99134.41;;;6.41;92.68
23996;BME280;12207;50.076;8.848;2024-01-06T08:13:55;99137.66;;;6.50;92.66
23996;BME280;12207;50.076;8.848;2024-01-06T08:16:22;99138.88;;;6.54;92.45
23996;BME280;12207;50.076;8.848;2024-01-06T08:18:48;99128.03;;;6.49;91.88
23996;BME280;12207;50.076;8.848;2024-01-06T08:21:14;99157.69;;;6.59;92.22
23996;BME280;12207;50.076;8.848;2024-01-06T08:23:40;99159.06;;;6.68;91.60
23996;BME280;12207;50.076;8.848;2024-01-06T08:26:06;99154.97;;;6.66;91.06
23996;BME280;12207;50.076;8.848;2024-01-06T08:28:32;99161.94;;;6.67;92.21
23996;BME280;12207;50.076;8.848;2024-01-06T08:30:58;99161.72;;;6.68;93.13
23996;BME280;12207;50.076;8.848;2024-01-06T08:33:24;99158.84;;;6.76;92.58
23996;BME280;12207;50.076;8.848;2024-01-06T08:35:50;99156.78;;;6.78;91.86
23996;BME280;12207;50.076;8.848;2024-01-06T08:38:16;99170.69;;;6.80;91.77
23996;BME280;12207;50.076;8.848;2024-01-06T08:40:42;99173.91;;;6.89;91.71
23996;BME280;12207;50.076;8.848;2024-01-06T08:43:11;99173.50;;;6.92;91.78
23996;BME280;12207;50.076;8.848;2024-01-06T08:45:37;99179.59;;;6.99;91.73
23996;BME280;12207;50.076;8.848;2024-01-06T08:48:04;99185.72;;;7.06;89.78
23996;BME280;12207;50.076;8.848;2024-01-06T08:50:30;99183.06;;;7.06;90.27
23996;BME280;12207;50.076;8.848;2024-01-06T08:52:56;99183.28;;;7.05;89.91
23996;BME280;12207;50.076;8.848;2024-01-06T08:55:22;99190.66;;;7.03;91.28
23996;BME280;12207;50.076;8.848;2024-01-06T08:57:48;99188.81;;;7.03;91.12
23996;BME280;12207;50.076;8.848;2024-01-06T09:00:17;99189.44;;;6.99;92.27
23996;BME280;12207;50.076;8.848;2024-01-06T09:02:43;99196.22;;;6.95;91.68
23996;BME280;12207;50.076;8.848;2024-01-06T09:05:09;99200.91;;;6.99;93.31
23996;BME280;12207;50.076;8.848;2024-01-06T09:07:39;99199.72;;;6.89;92.83
23996;BME280;12207;50.076;8.848;2024-01-06T09:10:06;99199.91;;;6.94;93.68
23996;BME280;12207;50.076;8.848;2024-01-06T09:12:32;99209.13;;;6.98;92.21
23996;BME280;12207;50.076;8.848;2024-01-06T09:15:01;99209.56;;;6.88;92.46
23996;BME280;12207;50.076;8.848;2024-01-06T09:17:27;99215.31;;;6.85;93.26
23996;BME280;12207;50.076;8.848;2024-01-06T09:19:54;99219.19;;;6.89;94.76
23996;BME280;12207;50.076;8.848;2024-01-06T09:22:20;99209.53;;;6.95;95.81
23996;BME280;12207;50.076;8.848;2024-01-06T09:24:46;99213.19;;;7.00;95.00
23996;BME280;12207;50.076;8.848;2024-01-06T09:27:15;99216.25;;;7.04;95.11
23996;BME280;12207;50.076;8.848;2024-01-06T09:29:41;99218.50;;;7.07;94.90
23996;BME280;12207;50.076;8.848;2024-01-06T09:32:07;99221.28;;;7.18;93.37
23996;BME280;12207;50.076;8.848;2024-01-06T09:34:34;99218.63;;;7.18;92.91
23996;BME280;12207;50.076;8.848;2024-01-06T09:37:00;99227.00;;;7.22;92.57
23996;BME280;12207;50.076;8.848;2024-01-06T09:39:26;99231.97;;;7.12;92.30
23996;BME280;12207;50.076;8.848;2024-01-06T09:41:52;99235.66;;;7.11;93.28
23996;BME280;12207;50.076;8.848;2024-01-06T09:44:18;99236.66;;;7.16;93.89
23996;BME280;12207;50.076;8.848;2024-01-06T09:46:45;99242.78;;;7.24;91.83
23996;BME280;12207;50.076;8.848;2024-01-06T09:49:11;99235.44;;;7.19;92.69
23996;BME280;12207;50.076;8.848;2024-01-06T09:51:42;99240.56;;;7.21;91.87
23996;BME280;12207;50.076;8.848;2024-01-06T09:54:09;99239.34;;;7.16;92.50
23996;BME280;12207;50.076;8.848;2024-01-06T09:56:39;99236.47;;;7.11;91.69
23996;BME280;12207;50.076;8.848;2024-01-06T09:59:06;99235.66;;;7.11;91.36
23996;BME280;12207;50.076;8.848;2024-01-06T10:01:32;99237.78;;;7.02;92.21
23996;BME280;12207;50.076;8.848;2024-01-06T10:03:58;99243.44;;;7.12;92.70
23996;BME280;12207;50.076;8.848;2024-01-06T10:06:27;99244.06;;;7.14;93.25
23996;BME280;12207;50.076;8.848;2024-01-06T10:08:53;99254.28;;;7.17;93.11
23996;BME280;12207;50.076;8.848;2024-01-06T10:11:21;99252.88;;;7.15;93.42
23996;BME280;12207;50.076;8.848;2024-01-06T10:13:51;99253.13;;;7.07;93.41
23996;BME280;12207;50.076;8.848;2024-01-06T10:16:18;99254.50;;;7.16;94.00
23996;BME280;12207;50.076;8.848;2024-01-06T10:18:44;99250.59;;;7.18;93.98
23996;BME280;12207;50.076;8.848;2024-01-06T10:21:10;99249.16;;;7.23;93.28
23996;BME280;12207;50.076;8.848;2024-01-06T10:23:36;99256.09;;;7.24;93.32
23996;BME280;12207;50.076;8.848;2024-01-06T10:26:03;99252.16;;;7.33;93.28
23996;BME280;12207;50.076;8.848;2024-01-06T10:28:29;99253.13;;;7.45;93.19
23996;BME280;12207;50.076;8.848;2024-01-06T10:30:56;99255.97;;;7.50;92.50
23996;BME280;12207;50.076;8.848;2024-01-06T10:33:27;99252.06;;;7.52;91.89
23996;BME280;12207;50.076;8.848;2024-01-06T10:35:53;99260.88;;;7.53;91.45
23996;BME280;12207;50.076;8.848;2024-01-06T10:38:22;99252.50;;;7.43;91.22
23996;BME280;12207;50.076;8.848;2024-01-06T10:40:57;99252.09;;;7.46;91.54
23996;BME280;12207;50.076;8.848;2024-01-06T10:43:26;99251.31;;;7.39;90.15
23996;BME280;12207;50.076;8.848;2024-01-06T10:45:56;99254.81;;;7.33;91.95
23996;BME280;12207;50.076;8.848;2024-01-06T10:48:25;99251.31;;;7.39;92.55
23996;BME280;12207;50.076;8.848;2024-01-06T10:50:53;99252.09;;;7.46;92.62
23996;BME280;12207;50.076;8.848;2024-01-06T10:53:21;99250.56;;;7.57;90.69
23996;BME280;12207;50.076;8.848;2024-01-06T10:55:52;99242.34;;;7.58;91.45
23996;BME280;12207;50.076;8.848;2024-01-06T10:58:19;99242.72;;;7.68;91.65
23996;BME280;12207;50.076;8.848;2024-01-06T11:00:46;99244.31;;;7.76;90.93
23996;BME280;12207;50.076;8.848;2024-01-06T11:03:14;99244.22;;;7.82;89.75
23996;BME280;12207;50.076;8.848;2024-01-06T11:05:44;99250.03;;;7.79;90.73
23996;BME280;12207;50.076;8.848;2024-01-06T11:08:13;99249.41;;;7.77;90.13
23996;BME280;12207;50.076;8.848;2024-01-06T11:10:43;99244.31;;;7.76;91.27
23996;BME280;12207;50.076;8.848;2024-01-06T11:13:12;99243.63;;;7.80;90.66
23996;BME280;12207;50.076;8.848;2024-01-06T11:15:49;99244.16;;;7.96;89.70
23996;BME280;12207;50.076;8.848;2024-01-06T11:18:36;99243.31;;;7.95;90.03
23996;BME280;12207;50.076;8.848;2024-01-06T11:21:22;99241.25;;;7.97;89.91
23996;BME280;12207;50.076;8.848;2024-01-06T11:24:15;99240.81;;;8.00;89.71
23996;BME280;12207;50.076;8.848;2024-01-06T11:26:44;99240.31;;;8.10;89.43
23996;BME280;12207;50.076;8.848;2024-01-06T11:29:11;99244.22;;;8.07;88.30
23996;BME280;12207;50.076;8.848;2024-01-06T11:31:37;99250.06;;;7.98;88.50
23996;BME280;12207;50.076;8.848;2024-01-06T11:34:16;99250.13;;;7.91;88.53
23996;BME280;12207;50.076;8.848;2024-01-06T11:36:47;99238.03;;;7.88;88.17
23996;BME280;12207;50.076;8.848;2024-01-06T11:39:36;99240.72;;;7.88;89.69
23996;BME280;12207;50.076;8.848;2024-01-06T11:42:04;99244.22;;;7.82;89.10
23996;BME280;12207;50.076;8.848;2024-01-06T11:44:34;99248.72;;;7.88;89.58
23996;BME280;12207;50.076;8.848;2024-01-06T11:47:02;99235.53;;;7.94;89.42
23996;BME280;12207;50.076;8.848;2024-01-06T11:49:30;99233.25;;;7.97;89.60
23996;BME280;12207;50.076;8.848;2024-01-06T11:51:59;99228.81;;;8.09;89.78
23996;BME280;12207;50.076;8.848;2024-01-06T11:54:26;99229.22;;;8.13;88.92
23996;BME280;12207;50.076;8.848;2024-01-06T11:56:52;99227.91;;;8.22;88.17
23996;BME280;12207;50.076;8.848;2024-01-06T11:59:20;99217.56;;;8.32;88.03
23996;BME280;12207;50.076;8.848;2024-01-06T12:01:46;99219.88;;;8.47;87.39
23996;BME280;12207;50.076;8.848;2024-01-06T12:04:16;99225.13;;;8.53;86.59
23996;BME280;12207;50.076;8.848;2024-01-06T12:06:43;99233.28;;;8.59;85.88
23996;BME280;12207;50.076;8.848;2024-01-06T12:09:13;99233.06;;;8.78;85.94
23996;BME280;12207;50.076;8.848;2024-01-06T12:11:41;99225.44;;;8.82;86.23
23996;BME280;12207;50.076;8.848;2024-01-06T12:14:07;99218.44;;;8.99;84.80
23996;BME280;12207;50.076;8.848;2024-01-06T12:16:36;99222.94;;;9.17;84.53
23996;BME280;12207;50.076;8.848;2024-01-06T12:19:03;99226.09;;;9.26;84.56
23996;BME280;12207;50.076;8.848;2024-01-06T12:21:30;99225.97;;;9.20;83.37
23996;BME280;12207;50.076;8.848;2024-01-06T12:24:19;99224.91;;;9.21;82.32
23996;BME280;12207;50.076;8.848;2024-01-06T12:26:47;99216.63;;;9.11;83.90
23996;BME280;12207;50.076;8.848;2024-01-06T12:29:14;99226.72;;;9.09;85.15
23996;BME280;12207;50.076;8.848;2024-01-06T12:31:41;99223.50;;;8.89;85.36
23996;BME280;12207;50.076;8.848;2024-01-06T12:34:08;99222.81;;;8.75;85.63
23996;BME280;12207;50.076;8.848;2024-01-06T12:36:41;99229.47;;;8.73;85.61
23996;BME280;12207;50.076;8.848;2024-01-06T12:39:13;99231.06;;;8.55;86.48
23996;BME280;12207;50.076;8.848;2024-01-06T12:41:42;99230.69;;;8.52;86.98
23996;BME280;12207;50.076;8.848;2024-01-06T12:44:09;99229.59;;;8.41;86.87
23996;BME280;12207;50.076;8.848;2024-01-06T12:46:35;99228.84;;;8.52;87.90
23996;BME280;12207;50.076;8.848;2024-01-06T12:49:01;99230.78;;;8.45;87.83
23996;BME280;12207;50.076;8.848;2024-01-06T12:51:28;99227.28;;;8.45;87.71
23996;BME280;12207;50.076;8.848;2024-01-06T12:53:54;99230.25;;;8.37;88.79
23996;BME280;12207;50.076;8.848;2024-01-06T12:56:21;99228.84;;;8.28;88.42
23996;BME280;12207;50.076;8.848;2024-01-06T12:58:48;99235.59;;;8.30;88.16
23996;BME280;12207;50.076;8.848;2024-01-06T13:01:14;99230.91;;;8.32;88.53
23996;BME280;12207;50.076;8.848;2024-01-06T13:03:40;99238.34;;;8.24;88.22
23996;BME280;12207;50.076;8.848;2024-01-06T13:06:06;99237.97;;;8.45;87.46
23996;BME280;12207;50.076;8.848;2024-01-06T13:08:33;99239.00;;;8.44;87.97